createdAt,value
2018-11-21T00:00:16.649Z,40.90
2018-11-21T00:02:45.637Z,43.33
2018-11-21T00:05:14.631Z,37.80
2018-11-21T00:07:43.563Z,44.97
2018-11-21T00:10:13.584Z,49.57
2018-11-21T00:12:47.255Z,49.50
2018-11-21T00:15:16.040Z,44.60
2018-11-21T00:17:44.818Z,40.00
2018-11-21T00:20:13.700Z,46.37
2018-11-21T00:22:42.471Z,42.70
2018-11-21T00:25:11.915Z,41.40
2018-11-21T00:27:40.951Z,43.87
2018-11-21T00:30:12.548Z,47.80
2018-11-21T00:32:41.362Z,48.40
2018-11-21T00:35:11.290Z,44.23
2018-11-21T00:37:40.173Z,42.90
2018-11-21T00:40:11.681Z,45.27
2018-11-21T00:42:46.378Z,48.27
2018-11-21T00:45:09.954Z,45.03
2018-11-21T00:47:38.855Z,49.60
2018-11-21T00:50:07.965Z,47.60
2018-11-21T00:52:36.981Z,46.30
2018-11-21T00:55:06.594Z,48.67
2018-11-21T00:57:35.453Z,44.60
2018-11-21T01:00:05.467Z,46.00
2018-11-21T01:02:34.232Z,49.23
2018-11-21T01:05:03.128Z,48.70
2018-11-21T01:07:32.417Z,49.40
2018-11-21T01:10:01.463Z,48.10
2018-11-21T01:12:30.452Z,46.77
2018-11-21T01:14:59.245Z,46.97
2018-11-21T01:17:28.008Z,48.30
2018-11-21T01:19:57.706Z,48.73
2018-11-21T01:22:26.445Z,50.70
2018-11-21T01:24:55.698Z,46.13
2018-11-21T01:27:24.419Z,53.23
2018-11-21T01:29:53.519Z,50.07
2018-11-21T01:32:22.218Z,51.30
2018-11-21T01:34:50.967Z,45.87
2018-11-21T01:37:19.708Z,54.13
2018-11-21T01:39:48.815Z,48.57
2018-11-21T01:42:17.825Z,53.53
2018-11-21T01:44:46.811Z,48.03
2018-11-21T01:47:15.545Z,53.20
2018-11-21T01:49:44.313Z,49.90
2018-11-21T01:52:13.108Z,46.67
2018-11-21T01:54:41.972Z,53.93
2018-11-21T01:57:10.723Z,47.93
2018-11-21T01:59:39.641Z,49.27
2018-11-21T02:02:08.504Z,54.60
2018-11-21T02:04:37.426Z,52.77
2018-11-21T02:07:06.444Z,45.37
2018-11-21T02:09:35.256Z,53.60
2018-11-21T02:12:04.045Z,51.20
2018-11-21T02:14:32.876Z,55.43
2018-11-21T02:17:01.869Z,51.97
2018-11-21T02:19:30.615Z,58.13
2018-11-21T02:21:59.467Z,50.60
2018-11-21T02:24:28.477Z,59.43
2018-11-21T02:26:57.543Z,48.00
2018-11-21T02:29:26.374Z,55.30
2018-11-21T02:31:55.285Z,52.00
2018-11-21T02:34:24.247Z,57.30
2018-11-21T02:36:53.169Z,52.50
2018-11-21T02:39:22.644Z,53.63
2018-11-21T02:41:51.403Z,52.20
2018-11-21T02:44:20.158Z,49.43
2018-11-21T02:46:49.031Z,51.67
2018-11-21T02:49:17.816Z,50.77
2018-11-21T02:51:46.997Z,46.60
2018-11-21T02:54:15.770Z,55.37
2018-11-21T02:57:19.610Z,53.73
2018-11-21T02:59:49.901Z,51.57
2018-11-21T03:02:18.794Z,51.00
2018-11-21T03:04:47.535Z,49.20
2018-11-21T03:07:16.319Z,47.60
2018-11-21T03:09:45.059Z,60.00
2018-11-21T03:12:13.847Z,49.60
2018-11-21T03:14:42.644Z,55.97
2018-11-21T03:17:11.580Z,58.23
2018-11-21T03:19:40.376Z,50.73
2018-11-21T03:22:09.230Z,55.37
2018-11-21T03:24:37.988Z,51.93
2018-11-21T03:27:06.836Z,54.00
2018-11-21T03:29:35.707Z,50.67
2018-11-21T03:32:05.271Z,55.07
2018-11-21T03:34:34.409Z,56.93
2018-11-21T03:37:03.815Z,51.97
2018-11-21T03:39:32.642Z,56.70
2018-11-21T03:42:01.454Z,56.57
2018-11-21T03:44:30.213Z,51.00
2018-11-21T03:46:58.944Z,49.73
2018-11-21T03:49:27.811Z,50.00
2018-11-21T03:51:56.652Z,56.77
2018-11-21T03:54:25.664Z,52.37
2018-11-21T03:56:54.482Z,52.90
2018-11-21T03:59:23.315Z,52.83
2018-11-21T04:01:55.186Z,51.83
2018-11-21T04:04:23.991Z,56.03
2018-11-21T04:06:52.881Z,56.00
2018-11-21T04:09:21.669Z,57.00
2018-11-21T04:11:50.433Z,54.60
2018-11-21T04:14:19.255Z,61.13
2018-11-21T04:16:48.585Z,61.37
2018-11-21T04:19:17.428Z,51.83
2018-11-21T04:21:46.297Z,64.27
2018-11-21T04:24:15.333Z,54.03
2018-11-21T04:26:44.142Z,65.07
2018-11-21T04:29:12.930Z,56.70
2018-11-21T04:31:41.946Z,56.50
2018-11-21T04:34:10.713Z,57.53
2018-11-21T04:36:39.471Z,55.60
2018-11-21T04:39:10.435Z,57.10
2018-11-21T04:41:39.492Z,56.97
2018-11-21T04:44:08.244Z,51.83
2018-11-21T04:46:37.284Z,52.20
2018-11-21T04:49:06.541Z,59.37
2018-11-21T04:51:35.348Z,62.00
2018-11-21T04:54:04.753Z,55.27
2018-11-21T04:56:33.507Z,55.63
2018-11-21T04:59:02.669Z,56.33
2018-11-21T05:01:33.681Z,56.10
2018-11-21T05:04:02.479Z,59.17
2018-11-21T05:06:31.259Z,56.03
2018-11-21T05:09:02.257Z,61.77
2018-11-21T05:11:31.013Z,53.90
2018-11-21T05:13:59.771Z,67.73
2018-11-21T05:16:35.656Z,55.77
2018-11-21T05:19:09.661Z,53.80
2018-11-21T05:21:38.406Z,57.07
2018-11-21T05:24:07.159Z,58.20
2018-11-21T05:26:36.036Z,51.27
2018-11-21T05:29:05.112Z,58.83
2018-11-21T05:31:33.971Z,58.03
2018-11-21T05:34:02.713Z,52.50
2018-11-21T05:36:31.492Z,55.27
2018-11-21T05:39:00.233Z,58.87
2018-11-21T05:41:28.955Z,56.77
2018-11-21T05:43:57.704Z,59.43
2018-11-21T05:46:30.317Z,56.23
2018-11-21T05:48:59.179Z,60.20
2018-11-21T05:51:27.949Z,57.23
2018-11-21T05:53:56.825Z,60.40
2018-11-21T05:56:25.951Z,55.67
2018-11-21T05:58:55.015Z,56.47
2018-11-21T06:01:23.784Z,57.83
2018-11-21T06:03:52.626Z,61.73
2018-11-21T06:06:25.440Z,60.57
2018-11-21T06:08:55.180Z,67.87
2018-11-21T06:11:26.818Z,61.47
2018-11-21T06:14:00.591Z,68.50
2018-11-21T06:16:29.498Z,68.63
2018-11-21T06:18:58.255Z,64.30
2018-11-21T06:21:29.093Z,69.20
2018-11-21T06:23:57.955Z,66.47
2018-11-21T06:26:26.752Z,72.13
2018-11-21T06:28:58.332Z,73.40
2018-11-21T06:31:30.852Z,72.10
2018-11-21T06:34:05.428Z,65.53
2018-11-21T06:36:34.237Z,65.20
2018-11-21T06:39:03.137Z,68.43
2018-11-21T06:41:31.971Z,65.13
2018-11-21T06:44:00.844Z,66.63
2018-11-21T06:46:31.252Z,70.77
2018-11-21T06:49:05.671Z,72.93
2018-11-21T06:51:35.323Z,73.47
2018-11-21T06:54:03.493Z,72.13
2018-11-21T06:56:32.549Z,69.40
2018-11-21T06:59:01.473Z,68.77
2018-11-21T07:01:30.443Z,66.10
2018-11-21T07:03:59.512Z,68.63
2018-11-21T07:06:29.328Z,65.40
2018-11-21T07:09:00.077Z,69.07
2018-11-21T07:11:29.278Z,67.77
2018-11-21T07:13:58.890Z,69.07
2018-11-21T07:16:27.670Z,71.67
2018-11-21T07:18:56.452Z,60.70
2018-11-21T07:21:25.383Z,74.53
2018-11-21T07:23:54.246Z,65.07
2018-11-21T07:26:24.481Z,68.23
2018-11-21T07:28:52.084Z,68.27
2018-11-21T07:31:21.022Z,70.97
2018-11-21T07:33:50.352Z,68.23
2018-11-21T07:36:19.169Z,66.20
2018-11-21T07:38:48.390Z,70.10
2018-11-21T07:41:17.940Z,73.40
2018-11-21T07:43:47.341Z,76.43
2018-11-21T07:46:16.098Z,65.37
2018-11-21T07:48:45.232Z,64.53
2018-11-21T07:51:14.037Z,68.57
2018-11-21T07:53:42.853Z,66.60
2018-11-21T07:57:11.063Z,71.50
2018-11-21T07:59:57.550Z,76.90
2018-11-21T08:02:31.833Z,74.57
2018-11-21T08:05:06.230Z,73.17
2018-11-21T08:07:43.451Z,74.40
2018-11-21T08:10:30.097Z,71.40
2018-11-21T08:13:36.948Z,68.33
2018-11-21T08:16:37.305Z,74.00
2018-11-21T08:19:24.628Z,70.30
2018-11-21T08:22:18.396Z,67.17
2018-11-21T08:25:04.909Z,71.57
2018-11-21T08:27:52.946Z,73.30
2018-11-21T08:30:22.045Z,71.87
2018-11-21T08:32:51.061Z,70.00
2018-11-21T08:35:20.214Z,67.93
2018-11-21T08:37:49.856Z,66.47
2018-11-21T08:40:18.971Z,60.70
2018-11-21T08:42:48.395Z,69.97
2018-11-21T08:45:17.415Z,67.00
2018-11-21T08:47:46.228Z,69.50
2018-11-21T08:50:15.229Z,76.17
2018-11-21T08:52:44.072Z,69.97
2018-11-21T08:55:12.998Z,72.60
2018-11-21T08:57:42.176Z,63.10
2018-11-21T09:00:13.502Z,77.83
2018-11-21T09:02:42.476Z,68.83
2018-11-21T09:05:11.657Z,73.70
2018-11-21T09:07:41.757Z,70.50
2018-11-21T09:10:15.455Z,62.30
2018-11-21T09:12:44.213Z,70.83
2018-11-21T09:15:14.650Z,67.80
2018-11-21T09:17:44.191Z,78.50
2018-11-21T09:20:14.976Z,69.60
2018-11-21T09:22:43.760Z,71.00
2018-11-21T09:25:13.039Z,66.00
2018-11-21T09:27:42.427Z,69.20
2018-11-21T09:30:16.324Z,67.23
2018-11-21T09:32:46.449Z,69.73
2018-11-21T09:35:17.294Z,68.40
2018-11-21T09:37:51.603Z,69.10
2018-11-21T09:40:21.766Z,68.00
2018-11-21T09:42:52.352Z,65.63
2018-11-21T09:45:22.267Z,61.67
2018-11-21T09:47:53.305Z,69.50
2018-11-21T09:50:26.497Z,69.10
2018-11-21T09:52:55.303Z,71.33
2018-11-21T09:55:24.412Z,64.80
2018-11-21T09:57:56.092Z,69.00
2018-11-21T10:01:18.744Z,68.23
2018-11-21T10:03:49.756Z,60.50
2018-11-21T10:06:27.833Z,69.90
2018-11-21T10:08:58.613Z,62.40
2018-11-21T10:11:28.526Z,60.67
2018-11-21T10:13:57.899Z,69.30
2018-11-21T10:16:31.710Z,62.80
2018-11-21T10:19:00.998Z,70.30
2018-11-21T10:21:32.154Z,60.10
2018-11-21T10:24:01.022Z,62.60
2018-11-21T10:26:29.861Z,65.60
2018-11-21T10:28:58.875Z,59.83
2018-11-21T10:31:28.131Z,53.17
2018-11-21T10:33:56.904Z,62.10
2018-11-21T10:36:35.151Z,58.53
2018-11-21T10:39:07.259Z,58.50
2018-11-21T10:41:39.564Z,60.27
2018-11-21T10:44:08.678Z,60.93
2018-11-21T10:46:37.783Z,59.33
2018-11-21T10:49:07.345Z,70.17
2018-11-21T10:51:43.374Z,68.63
2018-11-21T10:54:15.215Z,63.90
2018-11-21T10:56:49.602Z,59.87
2018-11-21T10:59:24.087Z,69.87
2018-11-21T11:02:11.316Z,63.33
2018-11-21T11:05:13.349Z,62.90
2018-11-21T11:08:02.490Z,69.07
2018-11-21T11:10:48.681Z,63.20
2018-11-21T11:13:40.534Z,64.97
2018-11-21T11:16:31.597Z,61.00
2018-11-21T11:19:37.551Z,60.40
2018-11-21T11:22:31.240Z,63.80
2018-11-21T11:25:20.556Z,65.47
2018-11-21T11:28:07.575Z,66.87
2018-11-21T11:31:02.489Z,68.80
2018-11-21T11:33:59.348Z,61.37
2018-11-21T11:36:51.893Z,63.37
2018-11-21T11:39:49.509Z,69.17
2018-11-21T11:42:42.325Z,65.33
2018-11-21T11:45:29.156Z,64.50
2018-11-21T11:48:17.511Z,62.20
2018-11-21T11:51:20.289Z,56.70
2018-11-21T11:54:09.041Z,67.60
2018-11-21T11:56:43.628Z,67.60
2018-11-21T11:59:32.250Z,60.57
2018-11-21T12:02:20.755Z,59.37
2018-11-21T12:05:01.553Z,64.47
2018-11-21T12:07:49.609Z,63.77
2018-11-21T12:10:34.900Z,58.90
2018-11-21T12:13:21.660Z,61.53
2018-11-21T12:16:12.732Z,68.40
2018-11-21T12:19:02.477Z,58.90
2018-11-21T12:21:49.159Z,67.73
2018-11-21T12:24:46.226Z,72.33
2018-11-21T12:27:40.387Z,59.27
2018-11-21T12:30:25.866Z,65.10
2018-11-21T12:33:16.837Z,65.13
2018-11-21T12:36:10.959Z,70.47
2018-11-21T12:39:18.430Z,61.53
2018-11-21T12:42:07.169Z,62.93
2018-11-21T12:45:00.204Z,68.87
2018-11-21T12:47:47.442Z,63.00
2018-11-21T12:50:36.936Z,65.70
2018-11-21T12:53:23.868Z,68.30
2018-11-21T12:56:10.371Z,69.00
2018-11-21T12:58:50.204Z,72.20
2018-11-21T13:01:53.561Z,61.60
2018-11-21T13:04:35.619Z,65.67
2018-11-21T13:07:41.501Z,64.93
2018-11-21T13:10:32.319Z,67.17
2018-11-21T13:13:25.917Z,61.97
2018-11-21T13:16:14.748Z,68.97
2018-11-21T13:19:01.201Z,73.50
2018-11-21T13:21:37.466Z,78.47
2018-11-21T13:24:15.993Z,74.33
2018-11-21T13:27:15.731Z,82.80
2018-11-21T13:30:01.114Z,69.50
2018-11-21T13:32:51.868Z,83.07
2018-11-21T13:35:40.400Z,78.57
2018-11-21T13:38:27.150Z,77.13
2018-11-21T13:41:12.993Z,84.47
2018-11-21T13:44:07.762Z,73.23
2018-11-21T13:46:58.595Z,76.07
2018-11-21T13:49:55.506Z,73.27
2018-11-21T13:52:49.691Z,80.50
2018-11-21T13:55:19.257Z,69.63
2018-11-21T13:57:48.402Z,72.60
2018-11-21T14:00:17.245Z,76.67
2018-11-21T14:02:46.432Z,71.70
2018-11-21T14:05:18.379Z,72.10
2018-11-21T14:07:47.218Z,71.60
2018-11-21T14:10:23.489Z,71.03
2018-11-21T14:12:54.369Z,72.47
2018-11-21T14:15:23.309Z,68.80
2018-11-21T14:17:52.002Z,69.70
2018-11-21T14:20:21.179Z,73.13
2018-11-21T14:22:49.991Z,70.10
2018-11-21T14:25:19.013Z,66.93
2018-11-21T14:27:55.302Z,65.73
2018-11-21T14:30:24.832Z,68.60
2018-11-21T14:32:56.544Z,71.33
2018-11-21T14:35:25.338Z,63.30
2018-11-21T14:37:59.826Z,77.00
2018-11-21T14:40:33.860Z,76.07
2018-11-21T14:43:11.011Z,71.10
2018-11-21T14:45:40.165Z,65.10
2018-11-21T14:48:14.300Z,67.47
2018-11-21T14:50:44.836Z,71.77
2018-11-21T14:53:17.153Z,70.97
2018-11-21T14:55:46.664Z,64.03
2018-11-21T14:58:15.438Z,64.17
2018-11-21T15:00:44.304Z,64.70
2018-11-21T15:03:18.318Z,56.57
2018-11-21T15:05:42.146Z,65.50
2018-11-21T15:08:11.135Z,68.97
2018-11-21T15:10:42.921Z,64.23
2018-11-21T15:13:11.714Z,57.70
2018-11-21T15:15:40.549Z,60.87
2018-11-21T15:18:09.337Z,59.97
2018-11-21T15:20:38.357Z,66.90
2018-11-21T15:23:10.005Z,59.40
2018-11-21T15:25:39.791Z,56.77
2018-11-21T15:28:11.681Z,57.50
2018-11-21T15:30:40.728Z,49.17
2018-11-21T15:33:09.791Z,58.87
2018-11-21T15:35:38.854Z,58.47
2018-11-21T15:38:07.784Z,55.47
2018-11-21T15:40:36.544Z,57.17
2018-11-21T15:43:05.523Z,54.13
2018-11-21T15:45:34.328Z,53.93
